sensor_id;sensor_type;location;lat;lon;timestamp;temperature;humidity
10233;DHT22;5161;48.174;11.756;2023-08-06T00:00:08;17.90;92.30
10233;DHT22;5161;48.174;11.756;2023-08-06T00:02:34;17.90;92.20
10233;DHT22;5161;48.174;11.756;2023-08-06T00:05:00;17.80;92.10
10233;DHT22;5161;48.174;11.756;2023-08-06T00:07:25;17.80;92.10
10233;DHT22;5161;48.174;11.756;2023-08-06T00:09:51;17.80;92.20
10233;DHT22;5161;48.174;11.756;2023-08-06T00:12:16;17.80;92.20
10233;DHT22;5161;48.174;11.756;2023-08-06T00:14:42;17.80;92.20
10233;DHT22;5161;48.174;11.756;2023-08-06T00:17:08;17.80;92.20
10233;DHT22;5161;48.174;11.756;2023-08-06T00:19:33;17.80;92.30
10233;DHT22;5161;48.174;11.756;2023-08-06T00:21:59;17.70;92.20
10233;DHT22;5161;48.174;11.756;2023-08-06T00:24:24;17.70;92.40
10233;DHT22;5161;48.174;11.756;2023-08-06T00:26:51;17.70;92.20
10233;DHT22;5161;48.174;11.756;2023-08-06T00:29:17;17.60;92.20
10233;DHT22;5161;48.174;11.756;2023-08-06T00:31:42;17.70;92.20
10233;DHT22;5161;48.174;11.756;2023-08-06T00:34:08;17.60;91.70
10233;DHT22;5161;48.174;11.756;2023-08-06T00:36:33;17.60;92.10
10233;DHT22;5161;48.174;11.756;2023-08-06T00:38:59;17.60;91.50
10233;DHT22;5161;48.174;11.756;2023-08-06T00:41:24;17.50;91.90
10233;DHT22;5161;48.174;11.756;2023-08-06T00:43:50;17.50;91.80
10233;DHT22;5161;48.174;11.756;2023-08-06T00:46:16;17.40;91.90
10233;DHT22;5161;48.174;11.756;2023-08-06T00:48:42;17.50;92.10
10233;DHT22;5161;48.174;11.756;2023-08-06T00:51:10;17.50;91.80
10233;DHT22;5161;48.174;11.756;2023-08-06T00:53:37;17.60;91.90
10233;DHT22;5161;48.174;11.756;2023-08-06T00:56:03;17.60;91.70
10233;DHT22;5161;48.174;11.756;2023-08-06T00:58:29;17.70;91.60
10233;DHT22;5161;48.174;11.756;2023-08-06T01:00:55;17.70;91.40
10233;DHT22;5161;48.174;11.756;2023-08-06T01:03:22;17.60;91.30
10233;DHT22;5161;48.174;11.756;2023-08-06T01:05:47;17.60;91.30
10233;DHT22;5161;48.174;11.756;2023-08-06T01:08:58;17.60;91.30
10233;DHT22;5161;48.174;11.756;2023-08-06T01:14:21;17.60;91.20
10233;DHT22;5161;48.174;11.756;2023-08-06T01:16:50;17.60;91.10
10233;DHT22;5161;48.174;11.756;2023-08-06T01:19:18;17.60;90.90
10233;DHT22;5161;48.174;11.756;2023-08-06T01:21:43;17.60;90.90
10233;DHT22;5161;48.174;11.756;2023-08-06T01:24:09;17.60;90.80
10233;DHT22;5161;48.174;11.756;2023-08-06T01:26:58;17.50;90.60
10233;DHT22;5161;48.174;11.756;2023-08-06T01:29:39;17.50;90.30
10233;DHT22;5161;48.174;11.756;2023-08-06T01:32:08;17.50;90.60
10233;DHT22;5161;48.174;11.756;2023-08-06T01:34:37;17.50;90.20
10233;DHT22;5161;48.174;11.756;2023-08-06T01:37:04;17.50;90.40
10233;DHT22;5161;48.174;11.756;2023-08-06T01:39:33;17.50;90.30
10233;DHT22;5161;48.174;11.756;2023-08-06T01:41:58;17.50;90.30
10233;DHT22;5161;48.174;11.756;2023-08-06T01:44:24;17.40;90.20
10233;DHT22;5161;48.174;11.756;2023-08-06T01:46:50;17.40;90.40
10233;DHT22;5161;48.174;11.756;2023-08-06T01:49:15;17.40;90.40
10233;DHT22;5161;48.174;11.756;2023-08-06T01:51:41;17.40;90.30
10233;DHT22;5161;48.174;11.756;2023-08-06T01:54:06;17.40;90.20
10233;DHT22;5161;48.174;11.756;2023-08-06T01:56:32;17.40;90.00
10233;DHT22;5161;48.174;11.756;2023-08-06T01:58:57;17.20;90.10
10233;DHT22;5161;48.174;11.756;2023-08-06T02:01:23;17.10;89.60
10233;DHT22;5161;48.174;11.756;2023-08-06T02:03:49;17.10;90.20
10233;DHT22;5161;48.174;11.756;2023-08-06T02:06:14;17.20;90.10
10233;DHT22;5161;48.174;11.756;2023-08-06T02:08:40;17.10;90.20
10233;DHT22;5161;48.174;11.756;2023-08-06T02:11:05;17.00;90.30
10233;DHT22;5161;48.174;11.756;2023-08-06T02:13:31;16.90;90.20
10233;DHT22;5161;48.174;11.756;2023-08-06T02:15:56;16.80;90.40
10233;DHT22;5161;48.174;11.756;2023-08-06T02:18:22;16.70;90.60
10233;DHT22;5161;48.174;11.756;2023-08-06T02:20:57;16.80;90.60
10233;DHT22;5161;48.174;11.756;2023-08-06T02:23:23;16.90;90.90
10233;DHT22;5161;48.174;11.756;2023-08-06T02:26:05;17.00;90.50
10233;DHT22;5161;48.174;11.756;2023-08-06T02:28:31;17.10;90.60
10233;DHT22;5161;48.174;11.756;2023-08-06T02:30:57;17.00;90.40
10233;DHT22;5161;48.174;11.756;2023-08-06T02:33:22;17.10;90.40
10233;DHT22;5161;48.174;11.756;2023-08-06T02:35:48;17.10;90.50
10233;DHT22;5161;48.174;11.756;2023-08-06T02:38:14;17.00;90.40
10233;DHT22;5161;48.174;11.756;2023-08-06T02:40:46;17.10;90.50
10233;DHT22;5161;48.174;11.756;2023-08-06T02:43:12;17.00;90.70
10233;DHT22;5161;48.174;11.756;2023-08-06T02:45:38;17.00;90.60
10233;DHT22;5161;48.174;11.756;2023-08-06T02:48:04;17.00;90.50
10233;DHT22;5161;48.174;11.756;2023-08-06T02:50:29;16.90;90.20
10233;DHT22;5161;48.174;11.756;2023-08-06T02:52:55;16.90;90.60
10233;DHT22;5161;48.174;11.756;2023-08-06T02:55:20;16.90;90.50
10233;DHT22;5161;48.174;11.756;2023-08-06T02:57:46;16.90;90.50
10233;DHT22;5161;48.174;11.756;2023-08-06T03:00:11;17.00;90.30
10233;DHT22;5161;48.174;11.756;2023-08-06T03:02:37;17.00;90.40
10233;DHT22;5161;48.174;11.756;2023-08-06T03:05:03;17.10;90.10
10233;DHT22;5161;48.174;11.756;2023-08-06T03:07:29;17.00;90.10
10233;DHT22;5161;48.174;11.756;2023-08-06T03:09:54;17.00;90.00
10233;DHT22;5161;48.174;11.756;2023-08-06T03:12:20;17.00;90.00
10233;DHT22;5161;48.174;11.756;2023-08-06T03:14:46;17.00;90.00
10233;DHT22;5161;48.174;11.756;2023-08-06T03:17:11;17.00;90.00
10233;DHT22;5161;48.174;11.756;2023-08-06T03:19:37;17.10;90.00
10233;DHT22;5161;48.174;11.756;2023-08-06T03:22:02;17.00;89.80
10233;DHT22;5161;48.174;11.756;2023-08-06T03:24:28;17.00;90.10
10233;DHT22;5161;48.174;11.756;2023-08-06T03:26:53;17.00;90.10
10233;DHT22;5161;48.174;11.756;2023-08-06T03:29:19;17.00;89.90
10233;DHT22;5161;48.174;11.756;2023-08-06T03:31:46;17.00;90.00
10233;DHT22;5161;48.174;11.756;2023-08-06T03:34:12;17.00;90.00
10233;DHT22;5161;48.174;11.756;2023-08-06T03:36:37;17.00;90.00
10233;DHT22;5161;48.174;11.756;2023-08-06T03:39:03;17.00;90.00
10233;DHT22;5161;48.174;11.756;2023-08-06T03:41:28;17.00;90.00
10233;DHT22;5161;48.174;11.756;2023-08-06T03:43:54;17.00;89.90
10233;DHT22;5161;48.174;11.756;2023-08-06T03:46:19;17.00;89.90
10233;DHT22;5161;48.174;11.756;2023-08-06T03:48:45;17.00;89.50
10233;DHT22;5161;48.174;11.756;2023-08-06T03:51:10;16.80;89.70
10233;DHT22;5161;48.174;11.756;2023-08-06T03:53:36;16.80;89.80
10233;DHT22;5161;48.174;11.756;2023-08-06T03:56:02;16.90;89.70
10233;DHT22;5161;48.174;11.756;2023-08-06T03:58:27;16.90;89.40
10233;DHT22;5161;48.174;11.756;2023-08-06T04:01:02;16.80;89.60
10233;DHT22;5161;48.174;11.756;2023-08-06T04:03:29;16.90;90.10
10233;DHT22;5161;48.174;11.756;2023-08-06T04:05:54;16.80;89.40
10233;DHT22;5161;48.174;11.756;2023-08-06T04:08:20;16.90;89.50
10233;DHT22;5161;48.174;11.756;2023-08-06T04:10:49;16.90;89.30
10233;DHT22;5161;48.174;11.756;2023-08-06T04:13:15;16.90;89.20
10233;DHT22;5161;48.174;11.756;2023-08-06T04:15:40;16.80;89.10
10233;DHT22;5161;48.174;11.756;2023-08-06T04:18:06;16.80;88.70
10233;DHT22;5161;48.174;11.756;2023-08-06T04:20:32;16.70;88.70
10233;DHT22;5161;48.174;11.756;2023-08-06T04:22:57;16.80;89.10
10233;DHT22;5161;48.174;11.756;2023-08-06T04:25:23;16.80;88.90
10233;DHT22;5161;48.174;11.756;2023-08-06T04:27:48;16.80;88.50
10233;DHT22;5161;48.174;11.756;2023-08-06T04:30:14;16.70;88.40
10233;DHT22;5161;48.174;11.756;2023-08-06T04:32:40;16.60;88.30
10233;DHT22;5161;48.174;11.756;2023-08-06T04:35:05;16.60;88.80
10233;DHT22;5161;48.174;11.756;2023-08-06T04:37:31;16.50;88.80
10233;DHT22;5161;48.174;11.756;2023-08-06T04:39:57;16.60;89.40
10233;DHT22;5161;48.174;11.756;2023-08-06T04:42:22;16.60;88.90
10233;DHT22;5161;48.174;11.756;2023-08-06T04:44:48;16.60;88.70
10233;DHT22;5161;48.174;11.756;2023-08-06T04:47:13;16.60;88.70
10233;DHT22;5161;48.174;11.756;2023-08-06T04:49:39;16.40;88.70
10233;DHT22;5161;48.174;11.756;2023-08-06T04:52:05;16.50;89.00
10233;DHT22;5161;48.174;11.756;2023-08-06T04:54:31;16.60;88.70
10233;DHT22;5161;48.174;11.756;2023-08-06T04:56:56;16.50;88.60
10233;DHT22;5161;48.174;11.756;2023-08-06T04:59:22;16.50;89.30
10233;DHT22;5161;48.174;11.756;2023-08-06T05:01:47;16.60;89.00
10233;DHT22;5161;48.174;11.756;2023-08-06T05:04:13;16.50;88.80
10233;DHT22;5161;48.174;11.756;2023-08-06T05:06:38;16.40;89.70
10233;DHT22;5161;48.174;11.756;2023-08-06T05:09:04;16.30;89.60
10233;DHT22;5161;48.174;11.756;2023-08-06T05:11:31;16.30;90.00
10233;DHT22;5161;48.174;11.756;2023-08-06T05:13:57;16.30;90.00
10233;DHT22;5161;48.174;11.756;2023-08-06T05:16:23;16.30;89.30
10233;DHT22;5161;48.174;11.756;2023-08-06T05:18:49;16.30;90.10
10233;DHT22;5161;48.174;11.756;2023-08-06T05:21:14;16.30;90.10
10233;DHT22;5161;48.174;11.756;2023-08-06T05:23:41;16.40;90.00
10233;DHT22;5161;48.174;11.756;2023-08-06T05:26:07;16.40;89.10
10233;DHT22;5161;48.174;11.756;2023-08-06T05:28:33;16.50;89.70
10233;DHT22;5161;48.174;11.756;2023-08-06T05:31:03;16.60;89.00
10233;DHT22;5161;48.174;11.756;2023-08-06T05:33:28;16.60;89.10
10233;DHT22;5161;48.174;11.756;2023-08-06T05:35:54;16.70;89.10
10233;DHT22;5161;48.174;11.756;2023-08-06T05:38:19;16.80;89.00
10233;DHT22;5161;48.174;11.756;2023-08-06T05:40:45;16.80;88.50
10233;DHT22;5161;48.174;11.756;2023-08-06T05:43:10;16.90;88.30
10233;DHT22;5161;48.174;11.756;2023-08-06T05:45:36;17.00;88.10
10233;DHT22;5161;48.174;11.756;2023-08-06T05:48:02;17.00;88.10
10233;DHT22;5161;48.174;11.756;2023-08-06T05:50:27;17.00;87.90
10233;DHT22;5161;48.174;11.756;2023-08-06T05:52:53;17.00;88.00
10233;DHT22;5161;48.174;11.756;2023-08-06T05:55:20;17.00;87.90
10233;DHT22;5161;48.174;11.756;2023-08-06T05:57:45;17.00;87.70
10233;DHT22;5161;48.174;11.756;2023-08-06T06:00:11;17.00;87.60
10233;DHT22;5161;48.174;11.756;2023-08-06T06:02:37;16.90;87.10
10233;DHT22;5161;48.174;11.756;2023-08-06T06:05:02;16.80;87.40
10233;DHT22;5161;48.174;11.756;2023-08-06T06:07:28;16.80;87.60
10233;DHT22;5161;48.174;11.756;2023-08-06T06:09:53;16.90;87.40
10233;DHT22;5161;48.174;11.756;2023-08-06T06:12:19;16.90;87.30
10233;DHT22;5161;48.174;11.756;2023-08-06T06:14:45;16.90;86.80
10233;DHT22;5161;48.174;11.756;2023-08-06T06:17:10;16.80;86.40
10233;DHT22;5161;48.174;11.756;2023-08-06T06:19:36;16.80;86.70
10233;DHT22;5161;48.174;11.756;2023-08-06T06:22:02;16.80;86.80
10233;DHT22;5161;48.174;11.756;2023-08-06T06:24:28;16.80;87.20
10233;DHT22;5161;48.174;11.756;2023-08-06T06:26:53;16.70;87.00
10233;DHT22;5161;48.174;11.756;2023-08-06T06:29:19;16.70;86.20
10233;DHT22;5161;48.174;11.756;2023-08-06T06:31:44;16.60;86.90
10233;DHT22;5161;48.174;11.756;2023-08-06T06:34:10;16.60;86.90
10233;DHT22;5161;48.174;11.756;2023-08-06T06:36:35;16.80;86.80
10233;DHT22;5161;48.174;11.756;2023-08-06T06:39:01;16.70;86.50
10233;DHT22;5161;48.174;11.756;2023-08-06T06:41:27;16.80;86.60
10233;DHT22;5161;48.174;11.756;2023-08-06T06:43:55;16.90;86.20
10233;DHT22;5161;48.174;11.756;2023-08-06T06:46:20;16.80;84.80
10233;DHT22;5161;48.174;11.756;2023-08-06T06:48:46;16.70;85.90
10233;DHT22;5161;48.174;11.756;2023-08-06T06:51:11;16.80;85.40
10233;DHT22;5161;48.174;11.756;2023-08-06T06:53:37;16.80;85.70
10233;DHT22;5161;48.174;11.756;2023-08-06T06:56:04;16.80;85.10
10233;DHT22;5161;48.174;11.756;2023-08-06T06:58:30;16.90;85.70
10233;DHT22;5161;48.174;11.756;2023-08-06T07:00:56;16.90;85.50
10233;DHT22;5161;48.174;11.756;2023-08-06T07:03:22;16.90;84.80
10233;DHT22;5161;48.174;11.756;2023-08-06T07:05:47;16.90;85.10
10233;DHT22;5161;48.174;11.756;2023-08-06T07:08:13;17.00;85.40
10233;DHT22;5161;48.174;11.756;2023-08-06T07:10:40;17.00;83.90
10233;DHT22;5161;48.174;11.756;2023-08-06T07:13:06;16.90;84.30
10233;DHT22;5161;48.174;11.756;2023-08-06T07:15:32;17.00;84.50
10233;DHT22;5161;48.174;11.756;2023-08-06T07:17:58;17.00;83.50
10233;DHT22;5161;48.174;11.756;2023-08-06T07:20:23;16.90;83.80
10233;DHT22;5161;48.174;11.756;2023-08-06T07:22:49;16.90;82.90
10233;DHT22;5161;48.174;11.756;2023-08-06T07:25:16;16.90;82.60
10233;DHT22;5161;48.174;11.756;2023-08-06T07:27:42;16.90;82.80
10233;DHT22;5161;48.174;11.756;2023-08-06T07:30:08;16.90;83.10
10233;DHT22;5161;48.174;11.756;2023-08-06T07:32:34;17.00;83.10
10233;DHT22;5161;48.174;11.756;2023-08-06T07:34:59;17.00;81.70
10233;DHT22;5161;48.174;11.756;2023-08-06T07:37:26;16.90;80.40
10233;DHT22;5161;48.174;11.756;2023-08-06T07:39:55;16.80;80.90
10233;DHT22;5161;48.174;11.756;2023-08-06T07:42:21;16.70;80.70
10233;DHT22;5161;48.174;11.756;2023-08-06T07:44:54;16.70;80.60
10233;DHT22;5161;48.174;11.756;2023-08-06T07:47:20;16.70;80.80
10233;DHT22;5161;48.174;11.756;2023-08-06T07:49:45;16.70;81.30
10233;DHT22;5161;48.174;11.756;2023-08-06T07:52:11;16.90;81.50
10233;DHT22;5161;48.174;11.756;2023-08-06T07:54:36;16.80;81.10
10233;DHT22;5161;48.174;11.756;2023-08-06T07:57:02;16.80;82.20
10233;DHT22;5161;48.174;11.756;2023-08-06T07:59:28;16.80;82.30
10233;DHT22;5161;48.174;11.756;2023-08-06T08:01:53;16.70;82.80
10233;DHT22;5161;48.174;11.756;2023-08-06T08:04:19;16.80;83.10
10233;DHT22;5161;48.174;11.756;2023-08-06T08:06:46;16.90;83.70
10233;DHT22;5161;48.174;11.756;2023-08-06T08:09:12;16.80;83.80
10233;DHT22;5161;48.174;11.756;2023-08-06T08:11:39;16.70;83.50
10233;DHT22;5161;48.174;11.756;2023-08-06T08:14:05;16.70;83.50
10233;DHT22;5161;48.174;11.756;2023-08-06T08:16:30;16.60;83.20
10233;DHT22;5161;48.174;11.756;2023-08-06T08:18:56;16.50;83.80
10233;DHT22;5161;48.174;11.756;2023-08-06T08:21:21;16.70;83.50
10233;DHT22;5161;48.174;11.756;2023-08-06T08:23:49;16.80;82.60
10233;DHT22;5161;48.174;11.756;2023-08-06T08:26:15;16.70;82.40
10233;DHT22;5161;48.174;11.756;2023-08-06T08:28:40;16.70;82.80
10233;DHT22;5161;48.174;11.756;2023-08-06T08:31:10;16.70;82.60
10233;DHT22;5161;48.174;11.756;2023-08-06T08:33:37;16.70;83.40
10233;DHT22;5161;48.174;11.756;2023-08-06T08:36:02;16.80;83.00
10233;DHT22;5161;48.174;11.756;2023-08-06T08:38:28;16.80;82.40
10233;DHT22;5161;48.174;11.756;2023-08-06T08:40:54;16.90;82.70
10233;DHT22;5161;48.174;11.756;2023-08-06T08:43:23;16.90;82.70
10233;DHT22;5161;48.174;11.756;2023-08-06T08:45:53;17.00;82.60
10233;DHT22;5161;48.174;11.756;2023-08-06T08:48:26;17.10;81.50
10233;DHT22;5161;48.174;11.756;2023-08-06T08:50:55;17.10;80.30
10233;DHT22;5161;48.174;11.756;2023-08-06T08:53:21;17.10;80.60
10233;DHT22;5161;48.174;11.756;2023-08-06T08:55:48;17.10;80.20
10233;DHT22;5161;48.174;11.756;2023-08-06T08:58:14;17.10;79.10
10233;DHT22;5161;48.174;11.756;2023-08-06T09:00:48;17.10;79.80
10233;DHT22;5161;48.174;11.756;2023-08-06T09:03:14;17.00;79.60
10233;DHT22;5161;48.174;11.756;2023-08-06T09:05:45;17.10;79.80
10233;DHT22;5161;48.174;11.756;2023-08-06T09:08:18;17.00;78.90
10233;DHT22;5161;48.174;11.756;2023-08-06T09:10:44;17.00;79.90
10233;DHT22;5161;48.174;11.756;2023-08-06T09:13:13;17.00;79.00
10233;DHT22;5161;48.174;11.756;2023-08-06T09:15:39;17.00;79.20
10233;DHT22;5161;48.174;11.756;2023-08-06T09:18:11;17.00;78.30
10233;DHT22;5161;48.174;11.756;2023-08-06T09:20:38;17.00;80.00
10233;DHT22;5161;48.174;11.756;2023-08-06T09:23:11;17.10;80.40
10233;DHT22;5161;48.174;11.756;2023-08-06T09:25:38;17.10;79.50
10233;DHT22;5161;48.174;11.756;2023-08-06T09:28:07;17.00;78.70
10233;DHT22;5161;48.174;11.756;2023-08-06T09:30:34;16.90;79.50
10233;DHT22;5161;48.174;11.756;2023-08-06T09:33:00;16.90;79.10
10233;DHT22;5161;48.174;11.756;2023-08-06T09:35:30;16.80;79.60
10233;DHT22;5161;48.174;11.756;2023-08-06T09:38:05;16.70;79.50
10233;DHT22;5161;48.174;11.756;2023-08-06T09:40:33;16.70;80.20
10233;DHT22;5161;48.174;11.756;2023-08-06T09:42:59;16.60;79.20
10233;DHT22;5161;48.174;11.756;2023-08-06T09:45:32;16.60;79.10
10233;DHT22;5161;48.174;11.756;2023-08-06T09:47:59;16.50;79.30
10233;DHT22;5161;48.174;11.756;2023-08-06T09:50:29;16.60;79.70
10233;DHT22;5161;48.174;11.756;2023-08-06T09:52:57;16.70;79.70
10233;DHT22;5161;48.174;11.756;2023-08-06T09:55:23;16.60;78.00
10233;DHT22;5161;48.174;11.756;2023-08-06T09:57:51;16.50;78.90
10233;DHT22;5161;48.174;11.756;2023-08-06T10:00:17;16.60;79.30
10233;DHT22;5161;48.174;11.756;2023-08-06T10:02:43;16.60;79.60
10233;DHT22;5161;48.174;11.756;2023-08-06T10:05:09;16.60;79.10
10233;DHT22;5161;48.174;11.756;2023-08-06T10:07:35;16.60;78.80
10233;DHT22;5161;48.174;11.756;2023-08-06T10:10:02;16.60;78.20
10233;DHT22;5161;48.174;11.756;2023-08-06T10:12:34;16.60;78.50
10233;DHT22;5161;48.174;11.756;2023-08-06T10:15:04;16.70;78.50
10233;DHT22;5161;48.174;11.756;2023-08-06T10:17:33;16.70;78.10
10233;DHT22;5161;48.174;11.756;2023-08-06T10:20:00;16.60;78.60
10233;DHT22;5161;48.174;11.756;2023-08-06T10:22:25;16.60;77.00
10233;DHT22;5161;48.174;11.756;2023-08-06T10:24:53;16.60;76.80
10233;DHT22;5161;48.174;11.756;2023-08-06T10:27:39;16.50;76.90
10233;DHT22;5161;48.174;11.756;2023-08-06T10:32:49;16.70;77.60
10233;DHT22;5161;48.174;11.756;2023-08-06T10:35:32;16.70;77.00
10233;DHT22;5161;48.174;11.756;2023-08-06T10:40:32;16.90;77.10
10233;DHT22;5161;48.174;11.756;2023-08-06T10:43:01;16.90;76.70
10233;DHT22;5161;48.174;11.756;2023-08-06T10:45:27;17.00;76.70
10233;DHT22;5161;48.174;11.756;2023-08-06T10:47:56;17.10;75.90
10233;DHT22;5161;48.174;11.756;2023-08-06T10:50:25;17.00;75.80
10233;DHT22;5161;48.174;11.756;2023-08-06T10:52:51;17.00;76.20
10233;DHT22;5161;48.174;11.756;2023-08-06T10:55:28;16.90;76.40
10233;DHT22;5161;48.174;11.756;2023-08-06T10:57:54;17.00;76.50
10233;DHT22;5161;48.174;11.756;2023-08-06T11:00:23;16.90;76.20
10233;DHT22;5161;48.174;11.756;2023-08-06T11:02:50;16.90;75.50
10233;DHT22;5161;48.174;11.756;2023-08-06T11:05:16;16.80;75.90
10233;DHT22;5161;48.174;11.756;2023-08-06T11:07:43;16.90;76.10
10233;DHT22;5161;48.174;11.756;2023-08-06T11:10:10;16.90;75.50
10233;DHT22;5161;48.174;11.756;2023-08-06T11:12:36;17.00;75.60
10233;DHT22;5161;48.174;11.756;2023-08-06T11:15:03;17.00;75.50
10233;DHT22;5161;48.174;11.756;2023-08-06T11:17:31;17.00;76.00
10233;DHT22;5161;48.174;11.756;2023-08-06T11:20:00;17.10;75.70
10233;DHT22;5161;48.174;11.756;2023-08-06T11:22:26;17.10;76.10
10233;DHT22;5161;48.174;11.756;2023-08-06T11:24:53;17.10;74.80
10233;DHT22;5161;48.174;11.756;2023-08-06T11:27:18;17.00;74.80
10233;DHT22;5161;48.174;11.756;2023-08-06T11:29:44;17.00;74.60
10233;DHT22;5161;48.174;11.756;2023-08-06T11:32:10;17.00;74.60
10233;DHT22;5161;48.174;11.756;2023-08-06T11:34:37;17.00;75.10
10233;DHT22;5161;48.174;11.756;2023-08-06T11:37:03;17.10;75.40
10233;DHT22;5161;48.174;11.756;2023-08-06T11:39:36;17.20;74.70
10233;DHT22;5161;48.174;11.756;2023-08-06T11:42:06;17.00;74.00
10233;DHT22;5161;48.174;11.756;2023-08-06T11:44:33;17.00;74.00
10233;DHT22;5161;48.174;11.756;2023-08-06T11:47:01;17.00;73.80
10233;DHT22;5161;48.174;11.756;2023-08-06T11:49:46;16.80;73.80
10233;DHT22;5161;48.174;11.756;2023-08-06T11:52:21;16.70;74.30
10233;DHT22;5161;48.174;11.756;2023-08-06T11:55:00;16.80;74.70
10233;DHT22;5161;48.174;11.756;2023-08-06T11:57:29;16.90;75.00
10233;DHT22;5161;48.174;11.756;2023-08-06T12:00:01;17.00;75.20
10233;DHT22;5161;48.174;11.756;2023-08-06T12:02:27;16.90;75.40
10233;DHT22;5161;48.174;11.756;2023-08-06T12:05:01;16.80;76.30
10233;DHT22;5161;48.174;11.756;2023-08-06T12:07:32;16.90;76.30
10233;DHT22;5161;48.174;11.756;2023-08-06T12:09:58;16.80;76.50
10233;DHT22;5161;48.174;11.756;2023-08-06T12:12:24;16.80;75.90
10233;DHT22;5161;48.174;11.756;2023-08-06T12:14:50;17.00;76.00
10233;DHT22;5161;48.174;11.756;2023-08-06T12:17:16;17.00;75.10
10233;DHT22;5161;48.174;11.756;2023-08-06T12:19:44;16.90;75.10
10233;DHT22;5161;48.174;11.756;2023-08-06T12:22:09;16.80;75.20
10233;DHT22;5161;48.174;11.756;2023-08-06T12:24:35;16.80;75.40
10233;DHT22;5161;48.174;11.756;2023-08-06T12:27:00;16.90;75.60
10233;DHT22;5161;48.174;11.756;2023-08-06T12:29:27;16.90;75.90
10233;DHT22;5161;48.174;11.756;2023-08-06T12:31:53;17.00;75.70
10233;DHT22;5161;48.174;11.756;2023-08-06T12:34:19;17.00;75.50
10233;DHT22;5161;48.174;11.756;2023-08-06T12:36:44;16.90;75.40
10233;DHT22;5161;48.174;11.756;2023-08-06T12:39:10;17.00;75.70
10233;DHT22;5161;48.174;11.756;2023-08-06T12:41:36;17.10;76.10
10233;DHT22;5161;48.174;11.756;2023-08-06T12:44:01;17.10;75.70
10233;DHT22;5161;48.174;11.756;2023-08-06T12:46:37;16.90;75.60
10233;DHT22;5161;48.174;11.756;2023-08-06T12:49:09;17.00;76.10
10233;DHT22;5161;48.174;11.756;2023-08-06T12:51:40;17.10;76.00
10233;DHT22;5161;48.174;11.756;2023-08-06T12:54:06;17.00;76.20
10233;DHT22;5161;48.174;11.756;2023-08-06T12:56:31;17.00;77.30
10233;DHT22;5161;48.174;11.756;2023-08-06T12:58:57;16.90;79.40
10233;DHT22;5161;48.174;11.756;2023-08-06T13:01:22;16.70;80.40
10233;DHT22;5161;48.174;11.756;2023-08-06T13:03:48;16.40;82.30
10233;DHT22;5161;48.174;11.756;2023-08-06T13:06:14;16.50;82.60
10233;DHT22;5161;48.174;11.756;2023-08-06T13:08:39;16.40;84.20
10233;DHT22;5161;48.174;11.756;2023-08-06T13:11:05;16.50;83.80
10233;DHT22;5161;48.174;11.756;2023-08-06T13:13:30;16.60;84.80
10233;DHT22;5161;48.174;11.756;2023-08-06T13:15:56;16.50;84.00
10233;DHT22;5161;48.174;11.756;2023-08-06T13:18:22;16.70;83.50
10233;DHT22;5161;48.174;11.756;2023-08-06T13:20:47;16.70;81.70
10233;DHT22;5161;48.174;11.756;2023-08-06T13:23:17;16.70;83.10
10233;DHT22;5161;48.174;11.756;2023-08-06T13:25:43;16.70;82.80
10233;DHT22;5161;48.174;11.756;2023-08-06T13:28:08;16.80;82.00
10233;DHT22;5161;48.174;11.756;2023-08-06T13:30:35;16.80;81.80
10233;DHT22;5161;48.174;11.756;2023-08-06T13:33:07;16.70;81.20
10233;DHT22;5161;48.174;11.756;2023-08-06T13:35:32;16.70;81.00
10233;DHT22;5161;48.174;11.756;2023-08-06T13:37:58;16.80;81.30
10233;DHT22;5161;48.174;11.756;2023-08-06T13:40:24;16.70;80.70
10233;DHT22;5161;48.174;11.756;2023-08-06T13:43:00;16.70;80.30
10233;DHT22;5161;48.174;11.756;2023-08-06T13:45:31;16.50;80.80
10233;DHT22;5161;48.174;11.756;2023-08-06T13:48:00;16.40;81.70
10233;DHT22;5161;48.174;11.756;2023-08-06T13:50:29;16.50;82.30
10233;DHT22;5161;48.174;11.756;2023-08-06T13:52:54;16.60;82.20
10233;DHT22;5161;48.174;11.756;2023-08-06T13:55:21;16.60;82.10
10233;DHT22;5161;48.174;11.756;2023-08-06T13:57:47;16.80;82.30
10233;DHT22;5161;48.174;11.756;2023-08-06T14:00:13;16.90;82.00
10233;DHT22;5161;48.174;11.756;2023-08-06T14:02:39;16.90;81.90
10233;DHT22;5161;48.174;11.756;2023-08-06T14:05:04;17.00;82.20
10233;DHT22;5161;48.174;11.756;2023-08-06T14:07:30;17.00;81.70
10233;DHT22;5161;48.174;11.756;2023-08-06T14:09:56;16.90;82.10
10233;DHT22;5161;48.174;11.756;2023-08-06T14:12:23;16.70;81.90
10233;DHT22;5161;48.174;11.756;2023-08-06T14:14:48;16.50;83.20
10233;DHT22;5161;48.174;11.756;2023-08-06T14:17:14;16.50;83.60
10233;DHT22;5161;48.174;11.756;2023-08-06T14:19:41;16.60;83.20
10233;DHT22;5161;48.174;11.756;2023-08-06T14:22:06;16.50;83.50
10233;DHT22;5161;48.174;11.756;2023-08-06T14:24:32;16.30;84.10
10233;DHT22;5161;48.174;11.756;2023-08-06T14:26:57;16.20;84.20
10233;DHT22;5161;48.174;11.756;2023-08-06T14:29:23;16.20;84.20
10233;DHT22;5161;48.174;11.756;2023-08-06T14:31:50;16.20;84.30
10233;DHT22;5161;48.174;11.756;2023-08-06T14:34:16;16.20;86.40
10233;DHT22;5161;48.174;11.756;2023-08-06T14:36:41;16.20;86.00
10233;DHT22;5161;48.174;11.756;2023-08-06T14:39:07;16.30;85.10
10233;DHT22;5161;48.174;11.756;2023-08-06T14:41:33;16.30;84.80
10233;DHT22;5161;48.174;11.756;2023-08-06T14:44:00;16.30;85.00
10233;DHT22;5161;48.174;11.756;2023-08-06T14:46:26;16.20;85.70
10233;DHT22;5161;48.174;11.756;2023-08-06T14:48:52;16.30;84.10
10233;DHT22;5161;48.174;11.756;2023-08-06T14:51:17;16.30;85.30
10233;DHT22;5161;48.174;11.756;2023-08-06T14:53:46;16.20;84.10
10233;DHT22;5161;48.174;11.756;2023-08-06T14:56:12;16.20;86.90
10233;DHT22;5161;48.174;11.756;2023-08-06T14:58:37;16.10;86.70
10233;DHT22;5161;48.174;11.756;2023-08-06T15:01:03;15.90;87.50
10233;DHT22;5161;48.174;11.756;2023-08-06T15:03:28;15.90;87.40
10233;DHT22;5161;48.174;11.756;2023-08-06T15:05:54;15.90;88.20
10233;DHT22;5161;48.174;11.756;2023-08-06T15:08:20;15.90;88.50
10233;DHT22;5161;48.174;11.756;2023-08-06T15:10:52;16.00;88.30
10233;DHT22;5161;48.174;11.756;2023-08-06T15:13:18;16.10;89.20
10233;DHT22;5161;48.174;11.756;2023-08-06T15:15:47;16.10;87.60
10233;DHT22;5161;48.174;11.756;2023-08-06T15:18:12;15.90;89.30
10233;DHT22;5161;48.174;11.756;2023-08-06T15:20:38;15.60;89.40
10233;DHT22;5161;48.174;11.756;2023-08-06T15:23:03;15.60;90.30
10233;DHT22;5161;48.174;11.756;2023-08-06T15:25:29;15.60;90.40
10233;DHT22;5161;48.174;11.756;2023-08-06T15:27:57;15.60;90.20
10233;DHT22;5161;48.174;11.756;2023-08-06T15:30:23;15.50;89.50
10233;DHT22;5161;48.174;11.756;2023-08-06T15:32:48;15.40;90.10
10233;DHT22;5161;48.174;11.756;2023-08-06T15:35:14;15.40;89.80